Schedule Details

Flight Number: ASX305X
Departure: Amsterdam Schiphol (EHAM) at 10:40Z
Arrival: Gdansk im. Lecha Walesy (EPGD) at 12:40Z

Weather Information
EHAM 180655Z 13005KT 8000 NSC M02/M03 Q1025 NOSIG
EPGD 180630Z 29002KT 8000 SCT041 M03/M04 Q1026

Schedule Frequency

Route Map